Weather at Futuna Airport

Public forecast

Using degrees Celsius for public forecast. Weather courtesy of forecast.io.

Closest aviation weather report (METAR) to Futuna Airport

Closest report is Aneityum Airport, 51.1 nm (94.7 km) SSW. Retrieved 2022/01/17 03:00 UTC (33 minutes ago):

NVVA 170300Z 13006KT 9999 -SHRA FEW010 SCT020 OVC110 27/24 Q1008

Closest aviation forecast (TAF) to Futuna Airport

Closest forecast is Aneityum Airport, 51.1 nm (94.7 km) SSW. Retrieved 2022-01-17 00:22 UTC (3 hours ago):

TAF NVVA 162220Z 1700/1724 13008KT 9999 SCT020 INTER 1700/1706 9000 -SHRA BKN018